Eagleville, Massachusetts
Current Conditions -  °F | °C
As of 2:52 AM on Thursday 18 Dec 2014 (Local Time) from KORE Reporting Station
Overcast Overcast  
Wind Chill: 30°   Ceiling: 6000
Heat Index: 36°   Visibility: 10mi
Dew Point: 28°   Wind: 8mph
Humidity: 73%   Direction: 280°W
Pressure: 29.74"   Gusts: NA
Location:  42.614°N, 72.3011°W
Report Text: KORE 180752Z AUTO 28007KT 10SM BKN060 OVC080 02/M02 A2974 RMK AO2 SLP076 T00221022
Loading
Personal Weather Stations






























Interactive Weather Map New forecast layout! Learn more

10-Day Weather Forecast

Advertisements
Track Severe Weather on mobile